sensor_id;sensor_type;location;lat;lon;timestamp;temperature;humidity
4501;DHT22;2263;54.654;9.410;2023-06-01T00:00:02;17.00;64.80
4501;DHT22;2263;54.654;9.410;2023-06-01T00:02:34;17.00;64.80
4501;DHT22;2263;54.654;9.410;2023-06-01T00:05:02;16.90;64.50
4501;DHT22;2263;54.654;9.410;2023-06-01T00:07:30;16.90;64.80
4501;DHT22;2263;54.654;9.410;2023-06-01T00:10:00;16.90;64.50
4501;DHT22;2263;54.654;9.410;2023-06-01T00:12:27;16.90;64.80
4501;DHT22;2263;54.654;9.410;2023-06-01T00:14:55;16.90;64.80
4501;DHT22;2263;54.654;9.410;2023-06-01T00:17:23;16.90;64.90
4501;DHT22;2263;54.654;9.410;2023-06-01T00:19:50;16.80;64.90
4501;DHT22;2263;54.654;9.410;2023-06-01T00:22:20;16.80;65.00
4501;DHT22;2263;54.654;9.410;2023-06-01T00:24:48;16.80;65.00
4501;DHT22;2263;54.654;9.410;2023-06-01T00:27:15;16.80;64.90
4501;DHT22;2263;54.654;9.410;2023-06-01T00:29:43;16.80;65.00
4501;DHT22;2263;54.654;9.410;2023-06-01T00:32:10;16.70;65.10
4501;DHT22;2263;54.654;9.410;2023-06-01T00:34:38;16.70;65.00
4501;DHT22;2263;54.654;9.410;2023-06-01T00:37:05;16.70;65.20
4501;DHT22;2263;54.654;9.410;2023-06-01T00:39:33;16.70;65.20
4501;DHT22;2263;54.654;9.410;2023-06-01T00:42:01;16.70;65.00
4501;DHT22;2263;54.654;9.410;2023-06-01T00:44:29;16.60;64.80
4501;DHT22;2263;54.654;9.410;2023-06-01T00:46:56;16.60;65.10
4501;DHT22;2263;54.654;9.410;2023-06-01T00:49:26;16.60;65.10
4501;DHT22;2263;54.654;9.410;2023-06-01T00:51:54;16.60;65.10
4501;DHT22;2263;54.654;9.410;2023-06-01T00:54:22;16.60;65.10
4501;DHT22;2263;54.654;9.410;2023-06-01T00:56:50;16.60;65.20
4501;DHT22;2263;54.654;9.410;2023-06-01T00:59:18;16.60;65.30
4501;DHT22;2263;54.654;9.410;2023-06-01T01:01:45;16.50;65.00
4501;DHT22;2263;54.654;9.410;2023-06-01T01:04:13;16.50;65.20
4501;DHT22;2263;54.654;9.410;2023-06-01T01:09:32;16.50;65.30
4501;DHT22;2263;54.654;9.410;2023-06-01T01:12:53;16.50;65.30
4501;DHT22;2263;54.654;9.410;2023-06-01T01:17:36;16.40;65.30
4501;DHT22;2263;54.654;9.410;2023-06-01T01:20:10;16.40;65.30
4501;DHT22;2263;54.654;9.410;2023-06-01T01:26:00;16.40;65.40
4501;DHT22;2263;54.654;9.410;2023-06-01T01:28:42;16.40;65.40
4501;DHT22;2263;54.654;9.410;2023-06-01T01:31:13;16.40;65.50
4501;DHT22;2263;54.654;9.410;2023-06-01T01:33:42;16.40;65.40
4501;DHT22;2263;54.654;9.410;2023-06-01T01:36:11;16.30;65.50
4501;DHT22;2263;54.654;9.410;2023-06-01T01:38:39;16.30;65.60
4501;DHT22;2263;54.654;9.410;2023-06-01T01:41:07;16.30;65.40
4501;DHT22;2263;54.654;9.410;2023-06-01T01:43:35;16.30;65.50
4501;DHT22;2263;54.654;9.410;2023-06-01T01:48:54;16.20;65.30
4501;DHT22;2263;54.654;9.410;2023-06-01T01:51:43;16.20;65.50
4501;DHT22;2263;54.654;9.410;2023-06-01T01:54:13;16.20;65.40
4501;DHT22;2263;54.654;9.410;2023-06-01T01:56:42;16.20;65.60
4501;DHT22;2263;54.654;9.410;2023-06-01T01:59:12;16.20;65.80
4501;DHT22;2263;54.654;9.410;2023-06-01T02:01:39;16.10;65.70
4501;DHT22;2263;54.654;9.410;2023-06-01T02:04:09;16.20;65.70
4501;DHT22;2263;54.654;9.410;2023-06-01T02:06:37;16.10;65.70
4501;DHT22;2263;54.654;9.410;2023-06-01T02:09:05;16.10;65.90
4501;DHT22;2263;54.654;9.410;2023-06-01T02:11:35;16.10;65.50
4501;DHT22;2263;54.654;9.410;2023-06-01T02:14:03;16.10;65.80
4501;DHT22;2263;54.654;9.410;2023-06-01T02:16:32;16.10;66.00
4501;DHT22;2263;54.654;9.410;2023-06-01T02:18:59;16.00;65.80
4501;DHT22;2263;54.654;9.410;2023-06-01T02:21:27;16.10;66.10
4501;DHT22;2263;54.654;9.410;2023-06-01T02:23:54;16.00;66.00
4501;DHT22;2263;54.654;9.410;2023-06-01T02:26:22;16.00;65.90
4501;DHT22;2263;54.654;9.410;2023-06-01T02:28:50;16.00;66.10
4501;DHT22;2263;54.654;9.410;2023-06-01T02:31:17;16.00;65.90
4501;DHT22;2263;54.654;9.410;2023-06-01T02:33:45;16.00;66.00
4501;DHT22;2263;54.654;9.410;2023-06-01T02:36:13;16.00;66.10
4501;DHT22;2263;54.654;9.410;2023-06-01T02:38:43;15.90;66.00
4501;DHT22;2263;54.654;9.410;2023-06-01T02:41:12;15.90;66.10
4501;DHT22;2263;54.654;9.410;2023-06-01T02:43:39;15.90;66.10
4501;DHT22;2263;54.654;9.410;2023-06-01T02:46:07;16.00;66.20
4501;DHT22;2263;54.654;9.410;2023-06-01T02:48:35;15.90;66.10
4501;DHT22;2263;54.654;9.410;2023-06-01T02:51:02;15.90;66.10
4501;DHT22;2263;54.654;9.410;2023-06-01T02:53:30;15.90;66.10
4501;DHT22;2263;54.654;9.410;2023-06-01T02:55:58;15.90;66.20
4501;DHT22;2263;54.654;9.410;2023-06-01T02:58:26;15.80;66.20
4501;DHT22;2263;54.654;9.410;2023-06-01T03:00:56;15.80;66.10
4501;DHT22;2263;54.654;9.410;2023-06-01T03:03:28;15.80;66.10
4501;DHT22;2263;54.654;9.410;2023-06-01T03:05:56;15.80;66.10
4501;DHT22;2263;54.654;9.410;2023-06-01T03:08:24;15.80;66.10
4501;DHT22;2263;54.654;9.410;2023-06-01T03:10:54;15.80;66.30
4501;DHT22;2263;54.654;9.410;2023-06-01T03:13:22;15.70;66.20
4501;DHT22;2263;54.654;9.410;2023-06-01T03:15:50;15.70;66.20
4501;DHT22;2263;54.654;9.410;2023-06-01T03:18:18;15.70;66.30
4501;DHT22;2263;54.654;9.410;2023-06-01T03:20:45;15.70;66.30
4501;DHT22;2263;54.654;9.410;2023-06-01T03:23:15;15.70;66.50
4501;DHT22;2263;54.654;9.410;2023-06-01T03:25:43;15.70;66.50
4501;DHT22;2263;54.654;9.410;2023-06-01T03:28:10;15.70;66.50
4501;DHT22;2263;54.654;9.410;2023-06-01T03:30:38;15.70;66.30
4501;DHT22;2263;54.654;9.410;2023-06-01T03:33:05;15.70;66.30
4501;DHT22;2263;54.654;9.410;2023-06-01T03:35:33;15.60;66.20
4501;DHT22;2263;54.654;9.410;2023-06-01T03:38:01;15.60;66.40
4501;DHT22;2263;54.654;9.410;2023-06-01T03:40:28;15.60;66.30
4501;DHT22;2263;54.654;9.410;2023-06-01T03:42:56;15.60;66.30
4501;DHT22;2263;54.654;9.410;2023-06-01T03:45:23;15.60;66.40
4501;DHT22;2263;54.654;9.410;2023-06-01T03:47:51;15.60;66.20
4501;DHT22;2263;54.654;9.410;2023-06-01T03:50:19;15.60;66.40
4501;DHT22;2263;54.654;9.410;2023-06-01T03:52:46;15.60;66.40
4501;DHT22;2263;54.654;9.410;2023-06-01T03:55:14;15.60;66.30
4501;DHT22;2263;54.654;9.410;2023-06-01T03:57:42;15.50;66.20
4501;DHT22;2263;54.654;9.410;2023-06-01T04:00:10;15.50;66.00
4501;DHT22;2263;54.654;9.410;2023-06-01T04:02:48;15.50;66.30
4501;DHT22;2263;54.654;9.410;2023-06-01T04:05:17;15.50;66.40
4501;DHT22;2263;54.654;9.410;2023-06-01T04:07:46;15.50;66.40
4501;DHT22;2263;54.654;9.410;2023-06-01T04:10:14;15.50;66.50
4501;DHT22;2263;54.654;9.410;2023-06-01T04:12:45;15.50;66.30
4501;DHT22;2263;54.654;9.410;2023-06-01T04:15:14;15.50;66.40
4501;DHT22;2263;54.654;9.410;2023-06-01T04:17:43;15.40;66.40
4501;DHT22;2263;54.654;9.410;2023-06-01T04:20:15;15.40;66.50
4501;DHT22;2263;54.654;9.410;2023-06-01T04:22:45;15.40;66.40
4501;DHT22;2263;54.654;9.410;2023-06-01T04:25:15;15.40;66.60
4501;DHT22;2263;54.654;9.410;2023-06-01T04:27:48;15.40;66.50
4501;DHT22;2263;54.654;9.410;2023-06-01T04:30:16;15.40;67.20
4501;DHT22;2263;54.654;9.410;2023-06-01T04:32:44;15.40;66.50
4501;DHT22;2263;54.654;9.410;2023-06-01T04:35:14;15.40;66.60
4501;DHT22;2263;54.654;9.410;2023-06-01T04:37:42;15.40;66.50
4501;DHT22;2263;54.654;9.410;2023-06-01T04:40:10;15.30;66.30
4501;DHT22;2263;54.654;9.410;2023-06-01T04:42:43;15.30;66.50
4501;DHT22;2263;54.654;9.410;2023-06-01T04:45:16;15.30;66.50
4501;DHT22;2263;54.654;9.410;2023-06-01T04:47:46;15.30;66.60
4501;DHT22;2263;54.654;9.410;2023-06-01T04:50:15;15.30;66.50
4501;DHT22;2263;54.654;9.410;2023-06-01T04:52:44;15.30;66.60
4501;DHT22;2263;54.654;9.410;2023-06-01T04:55:12;15.30;66.70
4501;DHT22;2263;54.654;9.410;2023-06-01T04:57:44;15.30;66.50
4501;DHT22;2263;54.654;9.410;2023-06-01T05:00:13;15.30;66.70
4501;DHT22;2263;54.654;9.410;2023-06-01T05:02:42;15.30;66.70
4501;DHT22;2263;54.654;9.410;2023-06-01T05:05:11;15.30;66.70
4501;DHT22;2263;54.654;9.410;2023-06-01T05:07:40;15.30;66.70
4501;DHT22;2263;54.654;9.410;2023-06-01T05:10:11;15.30;66.70
4501;DHT22;2263;54.654;9.410;2023-06-01T05:12:39;15.20;66.50
4501;DHT22;2263;54.654;9.410;2023-06-01T05:15:08;15.20;66.50
4501;DHT22;2263;54.654;9.410;2023-06-01T05:17:36;15.20;66.60
4501;DHT22;2263;54.654;9.410;2023-06-01T05:20:07;15.20;66.60
4501;DHT22;2263;54.654;9.410;2023-06-01T05:22:37;15.20;66.70
4501;DHT22;2263;54.654;9.410;2023-06-01T05:25:04;15.20;66.70
4501;DHT22;2263;54.654;9.410;2023-06-01T05:27:35;15.20;66.70
4501;DHT22;2263;54.654;9.410;2023-06-01T05:30:03;15.20;66.90
4501;DHT22;2263;54.654;9.410;2023-06-01T05:32:31;15.20;66.80
4501;DHT22;2263;54.654;9.410;2023-06-01T05:34:59;15.20;66.80
4501;DHT22;2263;54.654;9.410;2023-06-01T05:37:27;15.20;66.90
4501;DHT22;2263;54.654;9.410;2023-06-01T05:39:54;15.20;66.80
4501;DHT22;2263;54.654;9.410;2023-06-01T05:42:22;15.20;67.00
4501;DHT22;2263;54.654;9.410;2023-06-01T05:44:49;15.20;67.10
4501;DHT22;2263;54.654;9.410;2023-06-01T05:47:17;15.20;67.00
4501;DHT22;2263;54.654;9.410;2023-06-01T05:49:45;15.20;67.10
4501;DHT22;2263;54.654;9.410;2023-06-01T05:52:13;15.20;67.00
4501;DHT22;2263;54.654;9.410;2023-06-01T05:54:41;15.20;67.20
4501;DHT22;2263;54.654;9.410;2023-06-01T05:57:09;15.20;67.10
4501;DHT22;2263;54.654;9.410;2023-06-01T05:59:37;15.20;67.20
4501;DHT22;2263;54.654;9.410;2023-06-01T06:02:05;15.20;67.10
4501;DHT22;2263;54.654;9.410;2023-06-01T06:04:33;15.20;67.00
4501;DHT22;2263;54.654;9.410;2023-06-01T06:07:01;15.20;67.10
4501;DHT22;2263;54.654;9.410;2023-06-01T06:09:28;15.20;67.10
4501;DHT22;2263;54.654;9.410;2023-06-01T06:11:56;15.20;67.20
4501;DHT22;2263;54.654;9.410;2023-06-01T06:14:25;15.20;67.30
4501;DHT22;2263;54.654;9.410;2023-06-01T06:16:52;15.20;67.30
4501;DHT22;2263;54.654;9.410;2023-06-01T06:19:20;15.20;67.30
4501;DHT22;2263;54.654;9.410;2023-06-01T06:21:48;15.20;67.40
4501;DHT22;2263;54.654;9.410;2023-06-01T06:24:16;15.20;67.40
4501;DHT22;2263;54.654;9.410;2023-06-01T06:26:43;15.20;67.40
4501;DHT22;2263;54.654;9.410;2023-06-01T06:29:11;15.20;67.40
4501;DHT22;2263;54.654;9.410;2023-06-01T06:31:39;15.20;67.30
4501;DHT22;2263;54.654;9.410;2023-06-01T06:34:07;15.20;67.30
4501;DHT22;2263;54.654;9.410;2023-06-01T06:36:34;15.30;67.40
4501;DHT22;2263;54.654;9.410;2023-06-01T06:39:02;15.20;67.40
4501;DHT22;2263;54.654;9.410;2023-06-01T06:41:30;15.20;67.50
4501;DHT22;2263;54.654;9.410;2023-06-01T06:43:57;15.20;67.50
4501;DHT22;2263;54.654;9.410;2023-06-01T06:46:25;15.30;67.60
4501;DHT22;2263;54.654;9.410;2023-06-01T06:48:52;15.20;67.30
4501;DHT22;2263;54.654;9.410;2023-06-01T06:51:20;15.30;67.50
4501;DHT22;2263;54.654;9.410;2023-06-01T06:53:48;15.30;67.40
4501;DHT22;2263;54.654;9.410;2023-06-01T06:56:16;15.30;67.30
4501;DHT22;2263;54.654;9.410;2023-06-01T06:58:44;15.30;68.00
4501;DHT22;2263;54.654;9.410;2023-06-01T07:01:29;15.30;67.40
4501;DHT22;2263;54.654;9.410;2023-06-01T07:03:57;15.10;67.90
4501;DHT22;2263;54.654;9.410;2023-06-01T07:06:25;15.20;68.10
4501;DHT22;2263;54.654;9.410;2023-06-01T07:08:53;15.20;68.10
4501;DHT22;2263;54.654;9.410;2023-06-01T07:11:24;15.20;68.00
4501;DHT22;2263;54.654;9.410;2023-06-01T07:13:55;15.20;68.00
4501;DHT22;2263;54.654;9.410;2023-06-01T07:16:24;15.20;68.10
4501;DHT22;2263;54.654;9.410;2023-06-01T07:18:53;15.20;68.10
4501;DHT22;2263;54.654;9.410;2023-06-01T07:21:20;15.20;68.00
4501;DHT22;2263;54.654;9.410;2023-06-01T07:23:48;15.30;68.20
4501;DHT22;2263;54.654;9.410;2023-06-01T07:26:15;15.20;68.10
4501;DHT22;2263;54.654;9.410;2023-06-01T07:28:43;15.20;68.10
4501;DHT22;2263;54.654;9.410;2023-06-01T07:31:11;15.30;68.20
4501;DHT22;2263;54.654;9.410;2023-06-01T07:33:39;15.30;68.10
4501;DHT22;2263;54.654;9.410;2023-06-01T07:36:08;15.30;68.20
4501;DHT22;2263;54.654;9.410;2023-06-01T07:38:35;15.30;68.20
4501;DHT22;2263;54.654;9.410;2023-06-01T07:41:05;15.30;68.10
4501;DHT22;2263;54.654;9.410;2023-06-01T07:43:36;15.30;68.20
4501;DHT22;2263;54.654;9.410;2023-06-01T07:46:04;15.30;68.20
4501;DHT22;2263;54.654;9.410;2023-06-01T07:48:32;15.30;68.20
4501;DHT22;2263;54.654;9.410;2023-06-01T07:51:03;15.30;68.30
4501;DHT22;2263;54.654;9.410;2023-06-01T07:53:34;15.30;68.20
4501;DHT22;2263;54.654;9.410;2023-06-01T07:56:02;15.30;68.20
4501;DHT22;2263;54.654;9.410;2023-06-01T07:58:30;15.30;68.30
4501;DHT22;2263;54.654;9.410;2023-06-01T08:00:58;15.30;68.20
4501;DHT22;2263;54.654;9.410;2023-06-01T08:03:26;15.30;68.20
4501;DHT22;2263;54.654;9.410;2023-06-01T08:05:53;15.40;68.30
4501;DHT22;2263;54.654;9.410;2023-06-01T08:08:27;15.30;68.30
4501;DHT22;2263;54.654;9.410;2023-06-01T08:10:54;15.30;68.30
4501;DHT22;2263;54.654;9.410;2023-06-01T08:13:23;15.30;68.50
4501;DHT22;2263;54.654;9.410;2023-06-01T08:15:53;15.30;68.40
4501;DHT22;2263;54.654;9.410;2023-06-01T08:18:20;15.40;68.50
4501;DHT22;2263;54.654;9.410;2023-06-01T08:20:49;15.40;68.50
4501;DHT22;2263;54.654;9.410;2023-06-01T08:23:17;15.40;68.50
4501;DHT22;2263;54.654;9.410;2023-06-01T08:25:48;15.40;68.60
4501;DHT22;2263;54.654;9.410;2023-06-01T08:28:15;15.40;68.60
4501;DHT22;2263;54.654;9.410;2023-06-01T08:30:43;15.40;68.60
4501;DHT22;2263;54.654;9.410;2023-06-01T08:33:11;15.40;68.40
4501;DHT22;2263;54.654;9.410;2023-06-01T08:35:38;15.50;68.50
4501;DHT22;2263;54.654;9.410;2023-06-01T08:38:06;15.50;68.60
4501;DHT22;2263;54.654;9.410;2023-06-01T08:40:34;15.50;68.50
4501;DHT22;2263;54.654;9.410;2023-06-01T08:43:21;15.50;68.50
4501;DHT22;2263;54.654;9.410;2023-06-01T08:45:51;15.50;68.60
4501;DHT22;2263;54.654;9.410;2023-06-01T08:48:19;15.50;68.50
4501;DHT22;2263;54.654;9.410;2023-06-01T08:50:51;15.50;68.50
4501;DHT22;2263;54.654;9.410;2023-06-01T08:53:21;15.50;68.50
4501;DHT22;2263;54.654;9.410;2023-06-01T08:55:52;15.60;68.60
4501;DHT22;2263;54.654;9.410;2023-06-01T08:58:20;15.60;68.60
4501;DHT22;2263;54.654;9.410;2023-06-01T09:00:51;15.60;68.60
4501;DHT22;2263;54.654;9.410;2023-06-01T09:03:21;15.60;68.70
4501;DHT22;2263;54.654;9.410;2023-06-01T09:05:49;15.60;68.70
4501;DHT22;2263;54.654;9.410;2023-06-01T09:08:16;15.60;68.60
4501;DHT22;2263;54.654;9.410;2023-06-01T09:10:44;15.70;68.70
4501;DHT22;2263;54.654;9.410;2023-06-01T09:13:12;15.60;68.60
4501;DHT22;2263;54.654;9.410;2023-06-01T09:15:52;15.70;68.60
4501;DHT22;2263;54.654;9.410;2023-06-01T09:18:20;15.70;68.60
4501;DHT22;2263;54.654;9.410;2023-06-01T09:20:48;15.70;68.60
4501;DHT22;2263;54.654;9.410;2023-06-01T09:23:28;15.70;68.50
4501;DHT22;2263;54.654;9.410;2023-06-01T09:26:05;15.80;68.60
4501;DHT22;2263;54.654;9.410;2023-06-01T09:28:59;15.80;68.50
4501;DHT22;2263;54.654;9.410;2023-06-01T09:31:38;15.90;68.60
4501;DHT22;2263;54.654;9.410;2023-06-01T09:34:11;15.90;68.60
4501;DHT22;2263;54.654;9.410;2023-06-01T09:36:40;16.00;68.60
4501;DHT22;2263;54.654;9.410;2023-06-01T09:39:10;16.00;68.60
4501;DHT22;2263;54.654;9.410;2023-06-01T09:41:45;16.10;68.60
4501;DHT22;2263;54.654;9.410;2023-06-01T09:44:34;16.10;68.70
4501;DHT22;2263;54.654;9.410;2023-06-01T09:47:12;16.20;68.60
4501;DHT22;2263;54.654;9.410;2023-06-01T09:49:44;16.20;68.60
4501;DHT22;2263;54.654;9.410;2023-06-01T09:52:16;16.20;68.60
4501;DHT22;2263;54.654;9.410;2023-06-01T09:54:52;16.30;68.70
4501;DHT22;2263;54.654;9.410;2023-06-01T09:57:26;16.30;68.60
4501;DHT22;2263;54.654;9.410;2023-06-01T09:59:56;16.40;68.70
4501;DHT22;2263;54.654;9.410;2023-06-01T10:02:24;16.40;68.60
4501;DHT22;2263;54.654;9.410;2023-06-01T10:04:56;16.40;68.60
4501;DHT22;2263;54.654;9.410;2023-06-01T10:07:28;16.50;68.60
4501;DHT22;2263;54.654;9.410;2023-06-01T10:10:00;16.50;68.70
4501;DHT22;2263;54.654;9.410;2023-06-01T10:12:31;16.50;68.50
4501;DHT22;2263;54.654;9.410;2023-06-01T10:15:01;16.60;68.60
4501;DHT22;2263;54.654;9.410;2023-06-01T10:17:49;16.60;68.50
4501;DHT22;2263;54.654;9.410;2023-06-01T10:20:17;16.70;68.50
4501;DHT22;2263;54.654;9.410;2023-06-01T10:22:45;16.70;68.50
4501;DHT22;2263;54.654;9.410;2023-06-01T10:25:15;16.70;68.40
4501;DHT22;2263;54.654;9.410;2023-06-01T10:27:55;16.80;68.50
4501;DHT22;2263;54.654;9.410;2023-06-01T10:30:25;16.80;68.50
4501;DHT22;2263;54.654;9.410;2023-06-01T10:32:55;16.80;68.50
4501;DHT22;2263;54.654;9.410;2023-06-01T10:40:44;16.90;68.30
4501;DHT22;2263;54.654;9.410;2023-06-01T10:46:37;17.00;68.20
4501;DHT22;2263;54.654;9.410;2023-06-01T10:49:06;17.00;68.30
4501;DHT22;2263;54.654;9.410;2023-06-01T10:51:35;17.10;68.30
4501;DHT22;2263;54.654;9.410;2023-06-01T10:54:31;17.10;68.30
4501;DHT22;2263;54.654;9.410;2023-06-01T11:00:14;17.20;68.10
4501;DHT22;2263;54.654;9.410;2023-06-01T11:02:49;17.20;68.10
4501;DHT22;2263;54.654;9.410;2023-06-01T11:05:36;17.30;68.10
4501;DHT22;2263;54.654;9.410;2023-06-01T11:13:31;17.40;68.20
4501;DHT22;2263;54.654;9.410;2023-06-01T11:18:54;17.40;68.20
4501;DHT22;2263;54.654;9.410;2023-06-01T11:21:30;17.40;68.00
4501;DHT22;2263;54.654;9.410;2023-06-01T11:24:01;17.50;68.00
4501;DHT22;2263;54.654;9.410;2023-06-01T11:26:36;17.50;68.00
4501;DHT22;2263;54.654;9.410;2023-06-01T11:29:05;17.50;68.00
4501;DHT22;2263;54.654;9.410;2023-06-01T11:31:36;17.60;68.10
4501;DHT22;2263;54.654;9.410;2023-06-01T11:34:09;17.60;68.10
4501;DHT22;2263;54.654;9.410;2023-06-01T11:36:43;17.60;68.00
4501;DHT22;2263;54.654;9.410;2023-06-01T11:39:27;17.70;67.90
4501;DHT22;2263;54.654;9.410;2023-06-01T11:42:10;17.70;67.80
4501;DHT22;2263;54.654;9.410;2023-06-01T11:44:41;17.80;68.00
4501;DHT22;2263;54.654;9.410;2023-06-01T11:47:11;17.80;67.90
4501;DHT22;2263;54.654;9.410;2023-06-01T11:49:48;17.80;67.80
4501;DHT22;2263;54.654;9.410;2023-06-01T11:52:17;17.90;67.90
4501;DHT22;2263;54.654;9.410;2023-06-01T11:54:47;17.80;67.90
4501;DHT22;2263;54.654;9.410;2023-06-01T11:57:16;17.90;67.80
4501;DHT22;2263;54.654;9.410;2023-06-01T11:59:46;17.90;67.80
4501;DHT22;2263;54.654;9.410;2023-06-01T12:02:27;18.00;68.00
4501;DHT22;2263;54.654;9.410;2023-06-01T12:05:05;18.00;68.00
4501;DHT22;2263;54.654;9.410;2023-06-01T12:07:47;18.00;67.90
4501;DHT22;2263;54.654;9.410;2023-06-01T12:10:17;18.10;67.90
4501;DHT22;2263;54.654;9.410;2023-06-01T12:12:46;18.10;67.90
4501;DHT22;2263;54.654;9.410;2023-06-01T12:15:16;18.10;67.80
4501;DHT22;2263;54.654;9.410;2023-06-01T12:17:53;18.10;67.70
4501;DHT22;2263;54.654;9.410;2023-06-01T12:20:37;18.20;67.70
4501;DHT22;2263;54.654;9.410;2023-06-01T12:25:56;18.20;67.50
4501;DHT22;2263;54.654;9.410;2023-06-01T12:28:27;18.20;67.30
4501;DHT22;2263;54.654;9.410;2023-06-01T12:31:10;18.20;67.30
4501;DHT22;2263;54.654;9.410;2023-06-01T12:33:42;18.30;67.30
4501;DHT22;2263;54.654;9.410;2023-06-01T12:36:34;18.30;67.20
4501;DHT22;2263;54.654;9.410;2023-06-01T12:39:05;18.30;67.00
4501;DHT22;2263;54.654;9.410;2023-06-01T12:41:34;18.30;67.10
4501;DHT22;2263;54.654;9.410;2023-06-01T12:44:03;18.40;67.30
4501;DHT22;2263;54.654;9.410;2023-06-01T12:46:31;18.40;67.30
4501;DHT22;2263;54.654;9.410;2023-06-01T12:49:15;18.40;67.20
4501;DHT22;2263;54.654;9.410;2023-06-01T12:51:45;18.40;67.20
4501;DHT22;2263;54.654;9.410;2023-06-01T12:54:14;18.50;67.30
4501;DHT22;2263;54.654;9.410;2023-06-01T12:56:44;18.50;67.10
4501;DHT22;2263;54.654;9.410;2023-06-01T12:59:11;18.50;67.10
4501;DHT22;2263;54.654;9.410;2023-06-01T13:01:39;18.50;66.90
4501;DHT22;2263;54.654;9.410;2023-06-01T13:04:08;18.50;67.10
4501;DHT22;2263;54.654;9.410;2023-06-01T13:06:36;18.50;66.80
4501;DHT22;2263;54.654;9.410;2023-06-01T13:09:05;18.60;66.90
4501;DHT22;2263;54.654;9.410;2023-06-01T13:11:34;18.60;67.00
4501;DHT22;2263;54.654;9.410;2023-06-01T13:14:02;18.60;67.00
4501;DHT22;2263;54.654;9.410;2023-06-01T13:16:30;18.60;67.50
4501;DHT22;2263;54.654;9.410;2023-06-01T13:18:58;18.60;66.70
4501;DHT22;2263;54.654;9.410;2023-06-01T13:21:26;18.60;66.70
4501;DHT22;2263;54.654;9.410;2023-06-01T13:23:54;18.70;66.80
4501;DHT22;2263;54.654;9.410;2023-06-01T13:26:22;18.70;66.70
4501;DHT22;2263;54.654;9.410;2023-06-01T13:28:50;18.70;66.60
4501;DHT22;2263;54.654;9.410;2023-06-01T13:31:17;18.70;66.50
4501;DHT22;2263;54.654;9.410;2023-06-01T13:33:47;18.80;66.50
4501;DHT22;2263;54.654;9.410;2023-06-01T13:36:15;18.80;66.50
4501;DHT22;2263;54.654;9.410;2023-06-01T13:38:43;18.80;66.60
4501;DHT22;2263;54.654;9.410;2023-06-01T13:41:11;18.80;66.70
4501;DHT22;2263;54.654;9.410;2023-06-01T13:43:38;18.80;66.60
4501;DHT22;2263;54.654;9.410;2023-06-01T13:46:07;18.80;66.40
4501;DHT22;2263;54.654;9.410;2023-06-01T13:48:38;18.90;66.50
4501;DHT22;2263;54.654;9.410;2023-06-01T13:51:06;18.90;66.40
4501;DHT22;2263;54.654;9.410;2023-06-01T13:53:34;18.90;66.50
4501;DHT22;2263;54.654;9.410;2023-06-01T13:56:05;18.80;65.80
4501;DHT22;2263;54.654;9.410;2023-06-01T13:58:34;18.90;66.10
4501;DHT22;2263;54.654;9.410;2023-06-01T14:01:02;18.90;66.20
4501;DHT22;2263;54.654;9.410;2023-06-01T14:03:30;18.90;66.00
4501;DHT22;2263;54.654;9.410;2023-06-01T14:05:58;18.90;66.00
4501;DHT22;2263;54.654;9.410;2023-06-01T14:08:26;18.90;66.10
4501;DHT22;2263;54.654;9.410;2023-06-01T14:10:53;18.90;66.00
4501;DHT22;2263;54.654;9.410;2023-06-01T14:13:21;18.90;66.00
4501;DHT22;2263;54.654;9.410;2023-06-01T14:15:49;18.90;66.00
4501;DHT22;2263;54.654;9.410;2023-06-01T14:18:16;18.90;65.70
4501;DHT22;2263;54.654;9.410;2023-06-01T14:20:44;18.90;65.50
4501;DHT22;2263;54.654;9.410;2023-06-01T14:23:12;19.00;65.70
4501;DHT22;2263;54.654;9.410;2023-06-01T14:25:39;18.90;66.00
4501;DHT22;2263;54.654;9.410;2023-06-01T14:28:07;19.00;66.10
4501;DHT22;2263;54.654;9.410;2023-06-01T14:30:35;19.00;65.80
4501;DHT22;2263;54.654;9.410;2023-06-01T14:33:03;19.00;66.00
4501;DHT22;2263;54.654;9.410;2023-06-01T14:35:30;19.00;65.90
4501;DHT22;2263;54.654;9.410;2023-06-01T14:38:00;19.00;65.40
4501;DHT22;2263;54.654;9.410;2023-06-01T14:40:28;19.00;65.80
4501;DHT22;2263;54.654;9.410;2023-06-01T14:42:55;19.00;65.90
4501;DHT22;2263;54.654;9.410;2023-06-01T14:45:23;19.00;65.50
4501;DHT22;2263;54.654;9.410;2023-06-01T14:47:50;19.00;65.70
4501;DHT22;2263;54.654;9.410;2023-06-01T14:50:18;19.00;66.10
4501;DHT22;2263;54.654;9.410;2023-06-01T14:52:47;19.10;66.20
4501;DHT22;2263;54.654;9.410;2023-06-01T14:55:14;19.10;65.90
4501;DHT22;2263;54.654;9.410;2023-06-01T14:57:44;19.10;66.10
4501;DHT22;2263;54.654;9.410;2023-06-01T15:00:12;19.10;65.70
4501;DHT22;2263;54.654;9.410;2023-06-01T15:02:40;19.00;65.60
4501;DHT22;2263;54.654;9.410;2023-06-01T15:05:07;19.10;65.90
4501;DHT22;2263;54.654;9.410;2023-06-01T15:07:35;19.10;65.60
4501;DHT22;2263;54.654;9.410;2023-06-01T15:10:03;19.10;65.90
4501;DHT22;2263;54.654;9.410;2023-06-01T15:12:31;19.10;66.30
4501;DHT22;2263;54.654;9.410;2023-06-01T15:14:58;19.10;65.70
4501;DHT22;2263;54.654;9.410;2023-06-01T15:17:26;19.10;66.00
4501;DHT22;2263;54.654;9.410;2023-06-01T15:19:54;19.10;66.00
4501;DHT22;2263;54.654;9.410;2023-06-01T15:22:22;19.10;66.20
4501;DHT22;2263;54.654;9.410;2023-06-01T15:24:50;19.10;64.80
4501;DHT22;2263;54.654;9.410;2023-06-01T15:27:17;19.20;64.50
4501;DHT22;2263;54.654;9.410;2023-06-01T15:29:47;19.40;64.50
4501;DHT22;2263;54.654;9.410;2023-06-01T15:32:14;19.50;64.20
4501;DHT22;2263;54.654;9.410;2023-06-01T15:34:42;19.60;64.40
4501;DHT22;2263;54.654;9.410;2023-06-01T15:37:11;19.60;64.30
4501;DHT22;2263;54.654;9.410;2023-06-01T15:39:39;19.70;64.30
4501;DHT22;2263;54.654;9.410;2023-06-01T15:42:09;19.70;64.30
4501;DHT22;2263;54.654;9.410;2023-06-01T15:44:42;19.80;64.30
4501;DHT22;2263;54.654;9.410;2023-06-01T15:47:10;19.80;64.40
4501;DHT22;2263;54.654;9.410;2023-06-01T15:49:42;19.80;64.40
4501;DHT22;2263;54.654;9.410;2023-06-01T15:52:10;19.90;64.50
4501;DHT22;2263;54.654;9.410;2023-06-01T15:54:38;19.90;64.30
4501;DHT22;2263;54.654;9.410;2023-06-01T15:57:05;19.90;64.50
4501;DHT22;2263;54.654;9.410;2023-06-01T15:59:35;19.90;64.60
4501;DHT22;2263;54.654;9.410;2023-06-01T16:02:04;20.00;64.60
4501;DHT22;2263;54.654;9.410;2023-06-01T16:04:32;20.00;64.60
4501;DHT22;2263;54.654;9.410;2023-06-01T16:07:00;20.00;64.60
4501;DHT22;2263;54.654;9.410;2023-06-01T16:09:27;20.00;64.80
4501;DHT22;2263;54.654;9.410;2023-06-01T16:11:55;20.10;64.90
4501;DHT22;2263;54.654;9.410;2023-06-01T16:14:22;20.10;64.80
4501;DHT22;2263;54.654;9.410;2023-06-01T16:16:50;20.10;64.60
4501;DHT22;2263;54.654;9.410;2023-06-01T16:19:18;20.10;64.60
4501;DHT22;2263;54.654;9.410;2023-06-01T16:21:46;20.10;64.70
4501;DHT22;2263;54.654;9.410;2023-06-01T16:24:13;20.10;64.80
4501;DHT22;2263;54.654;9.410;2023-06-01T16:26:41;20.10;64.40
4501;DHT22;2263;54.654;9.410;2023-06-01T16:29:09;20.10;64.70
4501;DHT22;2263;54.654;9.410;2023-06-01T16:31:37;20.10;64.80
4501;DHT22;2263;54.654;9.410;2023-06-01T16:34:04;20.10;64.40
4501;DHT22;2263;54.654;9.410;2023-06-01T16:36:32;20.10;64.80
4501;DHT22;2263;54.654;9.410;2023-06-01T16:39:00;20.10;64.50
4501;DHT22;2263;54.654;9.410;2023-06-01T16:41:28;20.10;64.70
4501;DHT22;2263;54.654;9.410;2023-06-01T16:43:56;20.10;65.00
4501;DHT22;2263;54.654;9.410;2023-06-01T16:46:23;20.10;64.60
4501;DHT22;2263;54.654;9.410;2023-06-01T16:48:51;20.10;65.00
4501;DHT22;2263;54.654;9.410;2023-06-01T16:51:19;20.10;65.10